createdAt,value
2019-02-23T04:09:02.979Z,2.60
2019-02-23T04:11:33.590Z,2.60
2019-02-23T04:14:04.109Z,3.02
2019-02-23T04:16:34.705Z,2.75
2019-02-23T04:19:05.213Z,2.45
2019-02-23T04:21:35.756Z,2.63
2019-02-23T04:24:06.323Z,3.10
2019-02-23T04:26:36.837Z,2.52
2019-02-23T04:29:07.327Z,3.00
2019-02-23T04:31:37.897Z,3.52
2019-02-23T04:34:08.412Z,2.73
2019-02-23T04:36:38.921Z,2.90
2019-02-23T04:39:09.720Z,2.90
2019-02-23T04:41:40.216Z,2.90
2019-02-23T04:44:10.734Z,2.92
2019-02-23T04:46:41.283Z,2.92
2019-02-23T04:49:11.820Z,3.30
2019-02-23T04:51:42.350Z,2.70
2019-02-23T04:54:12.946Z,2.70
2019-02-23T04:56:43.444Z,2.85
2019-02-23T04:59:13.935Z,2.77
2019-02-23T05:01:44.539Z,3.00
2019-02-23T05:04:14.982Z,3.50
2019-02-23T05:06:45.460Z,2.80
2019-02-23T05:09:16.049Z,2.92
2019-02-23T05:11:46.573Z,3.30
2019-02-23T05:14:17.103Z,2.90
2019-02-23T05:16:47.754Z,3.08
2019-02-23T05:19:18.260Z,2.80
2019-02-23T05:21:48.818Z,2.87
2019-02-23T05:24:19.412Z,2.90
2019-02-23T05:26:49.904Z,3.35
2019-02-23T05:29:20.418Z,2.72
2019-02-23T05:31:50.940Z,2.67
2019-02-23T05:34:21.503Z,2.87
2019-02-23T05:36:52.018Z,2.90
2019-02-23T05:39:22.609Z,2.52
2019-02-23T05:41:53.158Z,3.60
2019-02-23T05:44:23.652Z,2.80
2019-02-23T05:46:54.256Z,2.90
2019-02-23T05:49:24.704Z,2.90
2019-02-23T05:51:55.188Z,2.70
2019-02-23T05:54:25.706Z,3.15
2019-02-23T05:56:56.209Z,3.25
2019-02-23T05:59:26.715Z,3.30
2019-02-23T06:01:57.239Z,2.77
2019-02-23T06:04:27.788Z,3.00
2019-02-23T06:06:58.296Z,2.87
2019-02-23T06:09:28.947Z,3.17
2019-02-23T06:11:59.430Z,2.77
2019-02-23T06:14:29.952Z,3.00
2019-02-23T06:17:00.528Z,3.27
2019-02-23T06:19:31.133Z,3.47
2019-02-23T06:22:01.681Z,3.25
2019-02-23T06:24:32.231Z,3.10
2019-02-23T06:27:02.820Z,2.70
2019-02-23T06:29:33.358Z,3.02
2019-02-23T06:32:03.917Z,3.65
2019-02-23T06:34:34.449Z,3.20
2019-02-23T06:37:05.004Z,3.40
2019-02-23T06:39:35.614Z,3.37
2019-02-23T06:42:06.104Z,3.20
2019-02-23T06:44:36.727Z,3.37
2019-02-23T06:47:07.320Z,3.40
2019-02-23T06:49:37.881Z,3.37
2019-02-23T06:52:08.415Z,3.50
2019-02-23T06:54:38.991Z,3.60
2019-02-23T06:57:09.514Z,3.30
2019-02-23T06:59:40.072Z,3.92
2019-02-23T07:02:10.868Z,3.37
2019-02-23T07:04:41.301Z,4.72
2019-02-23T07:07:11.806Z,3.70
2019-02-23T07:09:42.361Z,4.15
2019-02-23T07:12:12.905Z,3.98
2019-02-23T07:14:43.445Z,4.10
2019-02-23T07:17:13.987Z,4.10
2019-02-23T07:19:44.511Z,4.33
2019-02-23T07:22:16.100Z,4.33
2019-02-23T07:24:46.610Z,3.72
2019-02-23T07:27:17.186Z,4.10
2019-02-23T07:29:47.749Z,4.25
2019-02-23T07:32:18.381Z,4.65
2019-02-23T07:34:48.939Z,4.10
2019-02-23T07:37:19.518Z,4.80
2019-02-23T07:39:50.128Z,4.87
2019-02-23T07:42:20.567Z,5.78
2019-02-23T07:44:51.068Z,5.60
2019-02-23T07:47:21.628Z,5.75
2019-02-23T07:49:52.143Z,6.13
2019-02-23T07:52:26.285Z,5.78
2019-02-23T07:54:55.147Z,6.97
2019-02-23T07:57:25.646Z,6.17
2019-02-23T07:59:56.170Z,5.95
2019-02-23T08:02:36.135Z,7.30
2019-02-23T08:05:08.253Z,6.30
2019-02-23T08:07:39.966Z,5.70
2019-02-23T08:10:11.262Z,6.75
2019-02-23T08:12:41.888Z,5.80
2019-02-23T08:15:12.566Z,6.28
2019-02-23T08:17:43.029Z,5.92
2019-02-23T08:20:13.536Z,5.78
2019-02-23T08:22:44.042Z,5.75
2019-02-23T08:25:14.550Z,5.50
2019-02-23T08:27:45.071Z,6.53
2019-02-23T08:30:15.596Z,5.30
2019-02-23T08:32:46.151Z,6.70
2019-02-23T08:35:16.650Z,5.73
2019-02-23T08:37:47.217Z,6.03
2019-02-23T08:40:17.764Z,5.55
2019-02-23T08:42:48.286Z,4.95
2019-02-23T08:45:18.808Z,5.47
2019-02-23T08:47:49.306Z,5.62
2019-02-23T08:50:19.963Z,5.37
2019-02-23T08:52:50.568Z,5.92
2019-02-23T08:55:21.059Z,5.67
2019-02-23T08:57:51.587Z,6.10
2019-02-23T09:00:22.112Z,5.67
2019-02-23T09:02:52.571Z,4.93
2019-02-23T09:05:23.154Z,5.60
2019-02-23T09:07:53.651Z,5.17
2019-02-23T09:10:24.141Z,5.70
2019-02-23T09:12:54.661Z,5.08
2019-02-23T09:15:25.207Z,5.50
2019-02-23T09:17:55.770Z,5.40
2019-02-23T09:20:29.411Z,5.00
2019-02-23T09:23:00.472Z,4.20
2019-02-23T09:25:31.016Z,4.35
2019-02-23T09:28:01.636Z,4.00
2019-02-23T09:30:32.124Z,3.65
2019-02-23T09:33:02.700Z,3.50
2019-02-23T09:35:33.299Z,3.50
2019-02-23T09:38:03.888Z,3.95
2019-02-23T09:40:34.437Z,3.30
2019-02-23T09:43:04.961Z,3.75
2019-02-23T09:45:35.841Z,3.52
2019-02-23T09:48:06.394Z,4.00
2019-02-23T09:50:36.926Z,3.65
2019-02-23T09:53:11.255Z,3.60
2019-02-23T09:55:39.595Z,3.40
2019-02-23T09:58:10.104Z,2.67
2019-02-23T10:00:40.687Z,2.72
2019-02-23T10:03:11.237Z,3.47
2019-02-23T10:05:41.760Z,3.62
2019-02-23T10:08:12.290Z,2.60
2019-02-23T10:10:43.083Z,3.30
2019-02-23T10:13:13.548Z,2.80
2019-02-23T10:15:44.054Z,3.20
2019-02-23T10:18:14.571Z,3.15
2019-02-23T10:20:45.067Z,3.35
2019-02-23T10:23:22.145Z,3.60
2019-02-23T10:25:47.791Z,3.20
2019-02-23T10:28:18.287Z,3.20
2019-02-23T10:30:48.763Z,3.10
2019-02-23T10:33:19.341Z,3.45
2019-02-23T10:35:49.868Z,3.40
2019-02-23T10:38:20.442Z,3.30
2019-02-23T10:40:50.923Z,3.40
2019-02-23T10:43:21.428Z,4.00
2019-02-23T10:45:52.097Z,3.35
2019-02-23T10:48:22.790Z,4.28
2019-02-23T10:50:54.425Z,3.58
2019-02-23T10:53:32.549Z,3.17
2019-02-23T10:55:57.466Z,3.52
2019-02-23T10:58:27.976Z,3.80
2019-02-23T11:00:58.478Z,3.40
2019-02-23T11:03:29.112Z,3.70
2019-02-23T11:05:59.649Z,3.87
2019-02-23T11:08:30.095Z,3.50
2019-02-23T11:11:00.601Z,3.37
2019-02-23T11:13:31.086Z,3.72
2019-02-23T11:16:01.563Z,3.80
2019-02-23T11:18:32.709Z,3.10
2019-02-23T11:21:03.316Z,3.37
2019-02-23T11:23:43.879Z,4.20
2019-02-23T11:26:06.947Z,4.20
2019-02-23T11:28:37.587Z,3.45
2019-02-23T11:31:08.072Z,3.37
2019-02-23T11:33:38.636Z,3.20
2019-02-23T11:36:09.148Z,3.20
2019-02-23T11:38:39.781Z,3.35
2019-02-23T11:41:10.868Z,3.30
2019-02-23T11:43:41.347Z,3.30
2019-02-23T11:46:11.910Z,3.50
2019-02-23T11:48:42.962Z,3.47
2019-02-23T11:51:13.462Z,3.17
2019-02-23T11:53:54.394Z,3.67
2019-02-23T11:56:16.231Z,3.10
2019-02-23T11:58:46.709Z,3.20
2019-02-23T12:01:17.242Z,3.58
2019-02-23T12:03:49.842Z,3.10
2019-02-23T12:06:28.865Z,3.07
2019-02-23T12:09:11.549Z,3.40
2019-02-23T12:11:49.662Z,3.17
2019-02-23T12:15:05.797Z,3.20
2019-02-23T12:17:46.713Z,3.05
2019-02-23T12:20:19.850Z,3.25
2019-02-23T12:22:50.625Z,3.35
2019-02-23T12:25:21.108Z,2.93
2019-02-23T12:27:52.652Z,3.00
2019-02-23T12:35:09.478Z,3.25
2019-02-23T12:41:29.544Z,3.05
2019-02-23T12:44:00.827Z,3.50
2019-02-23T12:46:32.346Z,3.47
2019-02-23T12:49:04.037Z,3.30
2019-02-23T12:51:34.532Z,3.80
2019-02-23T12:54:05.054Z,3.30
2019-02-23T12:56:35.604Z,3.50
2019-02-23T12:59:06.131Z,3.12
2019-02-23T13:01:36.647Z,3.25
2019-02-23T13:04:07.238Z,3.17
2019-02-23T13:06:37.791Z,4.00
2019-02-23T13:09:24.805Z,3.75
2019-02-23T13:12:25.047Z,3.90
2019-02-23T13:15:41.177Z,3.50
2019-02-23T13:19:31.695Z,3.50
2019-02-23T13:22:17.282Z,3.30
2019-02-23T13:25:52.295Z,3.25
2019-02-23T13:28:56.839Z,3.50
2019-02-23T13:32:21.322Z,3.40
2019-02-23T13:35:20.788Z,3.80
2019-02-23T13:38:44.807Z,3.80
2019-02-23T13:41:56.114Z,3.93
2019-02-23T13:45:15.839Z,4.05
2019-02-23T13:48:40.681Z,3.37
2019-02-23T13:52:14.827Z,3.50
2019-02-23T13:55:45.690Z,3.62
2019-02-23T13:59:25.137Z,4.15
2019-02-23T14:02:51.990Z,3.42
2019-02-23T14:05:46.523Z,3.60
2019-02-23T14:09:17.489Z,3.60
2019-02-23T14:12:56.820Z,3.50
2019-02-23T14:16:30.105Z,3.73
2019-02-23T14:19:35.468Z,3.80
2019-02-23T14:23:14.992Z,4.28
2019-02-23T14:26:43.416Z,3.72
2019-02-23T14:30:29.043Z,3.83
2019-02-23T14:33:50.778Z,4.00
2019-02-23T14:37:01.239Z,4.10
2019-02-23T14:40:15.243Z,4.80
2019-02-23T14:43:47.130Z,4.08
2019-02-23T14:47:14.303Z,4.58
2019-02-23T14:50:30.643Z,3.80
2019-02-23T14:54:06.178Z,3.87
2019-02-23T14:57:14.434Z,4.12
2019-02-23T15:00:39.829Z,3.45
2019-02-23T15:03:56.995Z,4.50
2019-02-23T15:07:48.843Z,4.08
2019-02-23T15:11:13.859Z,4.10
2019-02-23T15:14:46.471Z,4.53
2019-02-23T15:17:55.108Z,3.80
2019-02-23T15:21:40.773Z,4.40
2019-02-23T15:24:50.983Z,4.40
2019-02-23T15:28:30.228Z,4.30
2019-02-23T15:31:19.701Z,4.60
2019-02-23T15:34:29.504Z,4.10
2019-02-23T15:37:17.782Z,3.80
2019-02-23T15:40:34.600Z,4.70
2019-02-23T15:43:57.545Z,4.72
2019-02-23T15:47:04.358Z,4.10
2019-02-23T15:49:36.554Z,4.30
2019-02-23T15:52:08.649Z,4.20
2019-02-23T15:54:39.188Z,4.42
2019-02-23T15:57:09.714Z,4.80
2019-02-23T15:59:40.160Z,4.97
2019-02-23T16:02:10.621Z,4.20
2019-02-23T16:04:41.116Z,4.30
2019-02-23T16:07:11.606Z,4.33
2019-02-23T16:12:09.678Z,4.07
2019-02-23T16:14:40.343Z,4.45
2019-02-23T16:17:10.845Z,4.30
2019-02-23T16:19:44.587Z,4.53
2019-02-23T16:22:18.566Z,4.00
2019-02-23T16:24:47.830Z,3.85
2019-02-23T16:27:18.462Z,3.98
2019-02-23T16:29:48.961Z,4.25
2019-02-23T16:32:19.505Z,3.80
2019-02-23T16:34:50.041Z,3.92
2019-02-23T16:37:20.726Z,3.70
2019-02-23T16:39:51.352Z,4.28
2019-02-23T16:42:21.926Z,4.30
2019-02-23T16:44:52.331Z,4.30
2019-02-23T16:47:22.851Z,4.25
2019-02-23T16:49:53.467Z,4.10
2019-02-23T16:52:23.972Z,3.83
2019-02-23T16:54:54.583Z,4.90
2019-02-23T16:57:25.181Z,4.40
2019-02-23T16:59:55.767Z,4.22
2019-02-23T17:02:26.400Z,4.10
2019-02-23T17:04:57.000Z,4.47
2019-02-23T17:07:27.568Z,4.20
2019-02-23T17:09:58.353Z,4.40
2019-02-23T17:12:28.985Z,4.60
2019-02-23T17:14:59.431Z,4.60
2019-02-23T17:17:30.342Z,5.00
2019-02-23T17:20:00.852Z,4.95
2019-02-23T17:22:31.417Z,5.10
2019-02-23T17:25:01.981Z,4.37
2019-02-23T17:27:36.182Z,5.00
2019-02-23T17:30:05.000Z,4.47
2019-02-23T17:32:35.515Z,4.90
2019-02-23T17:35:06.318Z,4.95
2019-02-23T17:37:36.848Z,5.70
2019-02-23T17:40:07.486Z,4.28
2019-02-23T17:42:38.077Z,4.85
2019-02-23T17:45:10.641Z,4.58
2019-02-23T17:47:41.177Z,4.50
2019-02-23T17:50:12.113Z,4.87
2019-02-23T17:52:42.677Z,4.85
2019-02-23T17:55:13.155Z,4.80
2019-02-23T17:57:43.753Z,5.15
2019-02-23T18:00:16.696Z,4.67
2019-02-23T18:02:47.262Z,4.92
2019-02-23T18:05:17.848Z,4.50
2019-02-23T18:07:48.597Z,5.50
2019-02-23T18:10:19.266Z,5.03
2019-02-23T18:12:49.844Z,5.05
2019-02-23T18:15:20.497Z,5.30
2019-02-23T18:17:50.985Z,5.50
2019-02-23T18:20:21.591Z,5.92
2019-02-23T18:22:52.599Z,5.60
2019-02-23T18:25:23.165Z,5.40
2019-02-23T18:27:53.933Z,5.67
2019-02-23T18:30:24.453Z,5.10
2019-02-23T18:32:55.012Z,5.15
2019-02-23T18:35:25.543Z,5.20
2019-02-23T18:37:56.031Z,5.28
2019-02-23T18:40:27.290Z,5.97
2019-02-23T18:42:58.078Z,5.60
2019-02-23T18:45:28.489Z,5.50
2019-02-23T18:47:59.694Z,5.25
2019-02-23T18:50:30.384Z,5.20
2019-02-23T18:53:01.069Z,5.17
2019-02-23T18:55:40.606Z,6.00
2019-02-23T18:58:04.470Z,5.67
2019-02-23T19:00:35.018Z,5.75
2019-02-23T19:06:19.275Z,5.90
2019-02-23T19:08:53.318Z,6.17
2019-02-23T19:11:26.156Z,5.58
2019-02-23T19:13:56.707Z,5.37
2019-02-23T19:16:27.333Z,4.97
2019-02-23T19:18:57.861Z,5.70
2019-02-23T19:21:28.421Z,5.28
2019-02-23T19:23:59.033Z,5.50
2019-02-23T19:26:37.832Z,5.30
2019-02-23T19:29:01.873Z,5.55
2019-02-23T19:31:32.398Z,5.90
2019-02-23T19:34:03.068Z,5.47
2019-02-23T19:36:33.779Z,6.17
2019-02-23T19:39:04.665Z,4.83
2019-02-23T19:41:35.214Z,6.00
2019-02-23T19:44:06.330Z,5.40
2019-02-23T19:46:43.025Z,5.10
2019-02-23T19:49:13.477Z,5.33
2019-02-23T19:51:44.089Z,6.05
2019-02-23T19:54:15.604Z,5.05
2019-02-23T19:56:47.009Z,5.25
2019-02-23T19:59:17.687Z,4.80
2019-02-23T20:01:48.292Z,5.20
2019-02-23T20:04:18.864Z,6.27
2019-02-23T20:06:49.407Z,5.40
2019-02-23T20:09:19.991Z,5.45
2019-02-23T20:11:50.495Z,5.35
2019-02-23T20:14:21.105Z,5.65
2019-02-23T20:16:51.626Z,5.60
2019-02-23T20:19:22.127Z,5.12
2019-02-23T20:21:52.647Z,5.40
2019-02-23T20:24:23.244Z,5.40
2019-02-23T20:26:55.822Z,5.35
2019-02-23T20:29:26.004Z,4.80
2019-02-23T20:31:56.554Z,5.25
2019-02-23T20:34:27.077Z,4.60
2019-02-23T20:36:57.649Z,4.80
2019-02-23T20:39:28.240Z,4.87
2019-02-23T20:41:58.746Z,4.42
2019-02-23T20:44:29.307Z,5.00
2019-02-23T20:46:59.895Z,5.25
2019-02-23T20:49:30.381Z,4.85
2019-02-23T20:52:01.182Z,5.28
2019-02-23T20:54:31.792Z,5.15
2019-02-23T20:57:05.253Z,5.35
2019-02-23T20:59:34.648Z,4.57
2019-02-23T21:02:05.242Z,5.00
2019-02-23T21:04:35.746Z,4.90
2019-02-23T21:07:08.229Z,5.37
2019-02-23T21:09:39.366Z,5.00
2019-02-23T21:12:09.941Z,5.40
2019-02-23T21:14:40.512Z,6.03
2019-02-23T21:17:11.100Z,5.72
2019-02-23T21:19:41.624Z,5.90
2019-02-23T21:22:13.565Z,5.67
2019-02-23T21:24:44.198Z,4.67
2019-02-23T21:27:14.731Z,5.70
2019-02-23T21:29:45.299Z,5.60
2019-02-23T21:32:15.931Z,4.62
2019-02-23T21:34:46.431Z,5.30
2019-02-23T21:37:16.993Z,5.22
2019-02-23T21:39:47.578Z,5.05
2019-02-23T21:42:18.080Z,5.78
2019-02-23T21:44:48.501Z,4.92
2019-02-23T21:47:19.080Z,5.22
2019-02-23T21:49:49.625Z,4.87
2019-02-23T21:52:20.117Z,4.95
2019-02-23T21:54:50.667Z,5.08
2019-02-23T21:57:22.418Z,5.47
2019-02-23T21:59:53.189Z,5.20
2019-02-23T22:02:23.821Z,5.37
2019-02-23T22:04:54.589Z,5.10
2019-02-23T22:07:25.969Z,4.78
2019-02-23T22:10:15.608Z,5.30
2019-02-23T22:12:46.313Z,5.35
2019-02-23T22:15:16.926Z,5.45
2019-02-23T22:17:47.517Z,4.78
2019-02-23T22:20:18.000Z,4.83
2019-02-23T22:22:48.572Z,5.40
2019-02-23T22:25:19.165Z,5.70
2019-02-23T22:27:49.846Z,5.30
2019-02-23T22:30:20.527Z,5.37
2019-02-23T22:32:51.053Z,4.90
2019-02-23T22:35:21.831Z,5.10
2019-02-23T22:37:52.501Z,5.50
2019-02-23T22:40:23.244Z,6.08
2019-02-23T22:42:53.818Z,6.25
2019-02-23T22:45:24.474Z,6.08
2019-02-23T22:47:55.091Z,6.10
2019-02-23T22:50:25.638Z,6.25
2019-02-23T22:52:56.250Z,5.90
2019-02-23T22:55:26.878Z,5.77
2019-02-23T22:57:57.490Z,6.47
2019-02-23T23:00:38.243Z,5.92
2019-02-23T23:03:08.942Z,6.03
2019-02-23T23:05:39.562Z,7.00
2019-02-23T23:08:10.414Z,6.25
2019-02-23T23:10:40.990Z,6.67
2019-02-23T23:13:14.740Z,7.03
2019-02-23T23:15:45.339Z,6.70
2019-02-23T23:18:15.974Z,6.25
2019-02-23T23:20:46.600Z,7.37
2019-02-23T23:23:18.107Z,6.62
2019-02-23T23:25:48.731Z,6.80
2019-02-23T23:28:22.132Z,7.05
2019-02-23T23:31:14.711Z,7.50
2019-02-23T23:33:45.375Z,7.05
2019-02-23T23:36:15.933Z,7.08
2019-02-23T23:38:46.884Z,6.47
2019-02-23T23:41:17.453Z,6.55
2019-02-23T23:43:48.033Z,7.47
2019-02-23T23:46:18.663Z,6.85
2019-02-23T23:48:49.605Z,7.57
2019-02-23T23:51:20.185Z,7.70
2019-02-23T23:53:51.222Z,7.85
2019-02-23T23:56:21.778Z,8.05
2019-02-23T23:58:52.829Z,7.35
